Aérodrome :
LOGIN :

S'inscrire | Disclaimer

   EN    FR    IT 

 










Légende :    VFR   VFR Marginal   IFR   IFR Intensif   IFR Très Intensif
Visi : 
Plafond : 
>= 8 km
>= 3000ft
5 à 8 km
1000 à 3000 ft
1500m à 5 km
500 à 1000 ft
800 à 1500m
200 à 500 ft
< 800m
< 200 ft
Symboles :   Orages  Brouillard  Fortes neiges  Fortes précipitations  Vent > 20 kt
SIGMETs :   Divers  Orages  Givrage  Turbulence  Onde Orograph.  Cendres Volcan.







- Altitude de l'aérodrome : 1306 ft
- Code IATA : ACH


LSZR - Alten Rhein

DERNIER METAR :
  • 231150Z 05009KT CAVOK 14/07 Q1012 NOSIG RMK H

METARs EXPIRÉS :
  • 231120Z 08008KT CAVOK 13/06 Q1012 NOSIG RMK G
  • 231050Z 08012KT CAVOK 13/06 Q1012 NOSIG RMK G
  • 231020Z 08013KT CAVOK 13/06 Q1012 NOSIG RMK F
  • 230950Z 12010KT CAVOK 13/06 Q1012 NOSIG RMK F
  • 230920Z 14007KT 080V170 CAVOK 12/04 Q1013 NOSIG RMK E

TAF TAF LSZR
Valide du 23 à 12h jusqu'au 23 à 21h UTC


231125Z 2312/2321 08012KT CAVOK
ATIS : +41 71 858 51 66
Pas de NOTAMs connus pour ce terrain.



MET'MAP, la Météo Aéronautique d'un coup d'oeil ! - Copyright ORBIFLY Décembre 2007 - Disclaimer

ORBIFLY MET'MAP TEAM :

Programmation & Développement : Alexandra Zaïnal
Conception & Développement : Baudouin d'Aumeries
Co-Programmation & Développement : Marc-Olivier Méhu
Soutien technique & logistique : Manuel Goepfert

Contact : metmap@orbifly.com




SOURCES & CREDITS :

   NOAA